Time;durP1;ratioP1;P1;durP2;ratioP2;P2;SDS_P1;SDS_P2;PMS_P1;PMS_P2;Temp;Humidity;BMP_temperature;BMP_pressure;BME280_temperature;BME280_humidity;BME280_pressure;Samples;Min_cycle;Max_cycle;Signal;HPM_P1;HPM_P2
2023/09/22 00:01:02;;;;;;;;;;;15.10;99.90;;;;;;4963931;29;19921;-74
2023/09/22 00:03:28;;;;;;;;;;;15.10;99.90;;;;;;4963036;29;20042;-75
2023/09/22 00:05:54;;;;;;;;;;;14.90;99.90;;;;;;4963910;29;19949;-75
2023/09/22 00:08:20;;;;;;;;;;;14.90;99.90;;;;;;4938525;29;20093;-75
2023/09/22 00:10:46;;;;;;;;;;;14.90;99.90;;;;;;4953038;29;19913;-73
2023/09/22 00:13:13;;;;;;;;;;;14.70;99.90;;;;;;4953340;29;19907;-73
2023/09/22 00:15:38;;;;;;;;;;;14.70;99.90;;;;;;4956209;29;19909;-74
2023/09/22 00:18:04;;;;;;;;;;;14.80;99.90;;;;;;4953511;29;19938;-73
2023/09/22 00:20:30;;;;;;;;;;;14.70;99.90;;;;;;4956594;29;19907;-74
2023/09/22 00:22:55;;;;;;;;;;;14.60;99.90;;;;;;4940459;29;19902;-75
2023/09/22 00:25:22;;;;;;;;;;;14.50;99.90;;;;;;4963390;29;19914;-74
2023/09/22 00:27:48;;;;;;;;;;;14.40;99.90;;;;;;4962044;29;19925;-74
2023/09/22 00:30:13;;;;;;;;;;;14.40;99.90;;;;;;4965825;29;19973;-74
2023/09/22 04:58:14;;;;;;;;;;;14.10;99.90;;;;;;5110735;23;19926;-77
2023/09/22 05:00:40;;;;;;;;;;;14.10;99.90;;;;;;4952129;28;19972;-79
2023/09/22 05:03:07;;;;;;;;;;;14.10;99.90;;;;;;4970342;28;19937;-77
2023/09/22 05:05:33;;;;;;;;;;;14.00;99.90;;;;;;4999849;28;19910;-76
2023/09/22 05:07:59;;;;;;;;;;;14.00;99.90;;;;;;4971179;28;19906;-74
2023/09/22 05:10:25;;;;;;;;;;;14.10;99.90;;;;;;4988202;28;20187;-75
2023/09/22 05:12:51;;;;;;;;;;;14.10;99.90;;;;;;4986768;28;19902;-76
2023/09/22 05:15:17;;;;;;;;;;;14.20;99.90;;;;;;4999337;28;20291;-75
2023/09/22 05:17:43;;;;;;;;;;;14.30;99.90;;;;;;5002329;28;19909;-76
2023/09/22 05:20:12;;;;;;;;;;;14.30;99.90;;;;;;5000552;28;19908;-75
2023/09/22 05:22:38;;;;;;;;;;;14.40;99.90;;;;;;4987307;28;20077;-77
2023/09/22 05:25:05;;;;;;;;;;;14.40;99.90;;;;;;4992410;28;19905;-75
2023/09/22 05:27:30;;;;;;;;;;;14.50;99.90;;;;;;4983355;28;19902;-74
2023/09/22 05:29:56;;;;;;;;;;;14.50;99.90;;;;;;4996265;28;19945;-75
2023/09/22 05:32:22;;;;;;;;;;;14.50;99.90;;;;;;4992989;28;19906;-76
2023/09/22 05:34:51;;;;;;;;;;;14.50;99.90;;;;;;4999423;28;19913;-76
2023/09/22 05:37:17;;;;;;;;;;;14.60;99.90;;;;;;5000686;28;19909;-74
2023/09/22 05:39:43;;;;;;;;;;;14.60;99.90;;;;;;4993581;28;19977;-74
2023/09/22 05:42:10;;;;;;;;;;;14.70;99.90;;;;;;4994124;28;19948;-75
2023/09/22 05:44:36;;;;;;;;;;;14.70;99.90;;;;;;4986442;28;19945;-76
2023/09/22 05:47:03;;;;;;;;;;;14.70;99.90;;;;;;4999341;28;19929;-74
2023/09/22 05:49:28;;;;;;;;;;;14.70;99.90;;;;;;4974667;28;19904;-75
2023/09/22 05:51:54;;;;;;;;;;;14.70;99.90;;;;;;4988610;28;19912;-75
2023/09/22 05:54:20;;;;;;;;;;;14.70;99.90;;;;;;4991025;28;19917;-77
2023/09/22 05:56:46;;;;;;;;;;;14.80;99.90;;;;;;4962379;28;19933;-75
2023/09/22 05:59:12;;;;;;;;;;;14.90;99.90;;;;;;4948940;29;19953;-75
2023/09/22 06:01:37;;;;;;;;;;;14.90;99.90;;;;;;4966802;28;19906;-75
2023/09/22 06:04:09;;;;;;;;;;;14.90;99.90;;;;;;4981563;28;19902;-76
2023/09/22 06:06:35;;;;;;;;;;;15.00;99.90;;;;;;4966456;28;19978;-76
2023/09/22 06:09:00;;;;;;;;;;;15.00;99.90;;;;;;4967540;28;20128;-76
2023/09/22 06:11:26;;;;;;;;;;;15.00;99.90;;;;;;4958938;28;19903;-75
2023/09/22 06:13:52;;;;;;;;;;;15.00;99.90;;;;;;4971827;28;19979;-76
2023/09/22 06:16:18;;;;;;;;;;;15.10;99.90;;;;;;4976134;28;19936;-76
2023/09/22 06:18:44;;;;;;;;;;;15.10;99.90;;;;;;4976554;28;19908;-75
2023/09/22 06:21:10;;;;;;;;;;;15.20;99.90;;;;;;4974938;28;19906;-76
2023/09/22 06:23:36;;;;;;;;;;;15.20;99.90;;;;;;4967316;28;19957;-75
2023/09/22 06:26:04;;;;;;;;;;;15.20;99.90;;;;;;4965040;28;19902;-75
2023/09/22 06:28:30;;;;;;;;;;;15.20;99.90;;;;;;4971948;28;19906;-77
2023/09/22 06:31:00;;;;;;;;;;;15.30;99.90;;;;;;4974898;28;19945;-77
2023/09/22 06:33:27;;;;;;;;;;;15.40;99.90;;;;;;4962532;28;19902;-78
2023/09/22 06:35:57;;;;;;;;;;;15.30;99.90;;;;;;4961448;28;20132;-77
2023/09/22 06:38:22;;;;;;;;;;;15.40;99.90;;;;;;4964921;28;19910;-77
2023/09/22 06:40:48;;;;;;;;;;;15.40;99.90;;;;;;4964098;28;19902;-77
2023/09/22 06:43:13;;;;;;;;;;;15.50;99.90;;;;;;4972217;28;19906;-79
2023/09/22 06:45:40;;;;;;;;;;;15.50;99.90;;;;;;4973915;28;19910;-78
2023/09/22 06:48:06;;;;;;;;;;;15.50;99.90;;;;;;4973604;28;19906;-77
2023/09/22 06:50:35;;;;;;;;;;;15.60;99.90;;;;;;4964513;28;19953;-77
2023/09/22 06:53:01;;;;;;;;;;;15.70;99.90;;;;;;4960003;28;19989;-77
2023/09/22 06:55:26;;;;;;;;;;;15.90;99.90;;;;;;4976499;28;19910;-77
2023/09/22 06:57:52;;;;;;;;;;;16.00;99.90;;;;;;4944507;28;19914;-77
2023/09/22 07:00:18;;;;;;;;;;;16.10;99.90;;;;;;4975005;28;19906;-77
2023/09/22 07:02:46;;;;;;;;;;;16.10;99.90;;;;;;4977769;28;19894;-77
2023/09/22 07:05:12;;;;;;;;;;;16.20;99.90;;;;;;4995604;28;19961;-78
2023/09/22 07:07:38;;;;;;;;;;;16.20;99.90;;;;;;4975549;28;19919;-79
2023/09/22 07:10:10;;;;;;;;;;;16.20;99.90;;;;;;4963756;28;19909;-78
2023/09/22 07:12:36;;;;;;;;;;;16.20;99.90;;;;;;4964489;28;20073;-77
2023/09/22 07:15:02;;;;;;;;;;;16.10;99.90;;;;;;4971983;28;19922;-78
2023/09/22 07:17:28;;;;;;;;;;;16.20;99.90;;;;;;4947629;28;19908;-77
2023/09/22 07:19:54;;;;;;;;;;;16.10;99.90;;;;;;4959542;28;19910;-78
2023/09/22 07:22:19;;;;;;;;;;;16.10;99.90;;;;;;4964106;28;19973;-78
2023/09/22 07:24:45;;;;;;;;;;;16.10;99.90;;;;;;4959124;28;20086;-77
2023/09/22 07:27:10;;;;;;;;;;;16.20;99.90;;;;;;4964392;28;19970;-76
2023/09/22 07:29:36;;;;;;;;;;;16.20;99.90;;;;;;4973089;28;19906;-77
2023/09/22 07:32:03;;;;;;;;;;;16.20;99.90;;;;;;4966719;28;19917;-76
2023/09/22 07:34:29;;;;;;;;;;;16.20;99.90;;;;;;4976525;28;20001;-80
2023/09/22 07:36:54;;;;;;;;;;;16.20;99.90;;;;;;4969315;28;19907;-79
2023/09/22 07:39:21;;;;;;;;;;;16.20;99.90;;;;;;4966892;28;20176;-79
2023/09/22 07:41:46;;;;;;;;;;;16.20;99.90;;;;;;4969318;28;20183;-79
2023/09/22 07:44:21;;;;;;;;;;;16.20;99.90;;;;;;4964572;28;19918;-80
2023/09/22 07:47:10;;;;;;;;;;;16.20;99.90;;;;;;4959162;28;19936;-79
2023/09/22 07:49:42;;;;;;;;;;;16.20;99.90;;;;;;4955334;28;19930;-79
2023/09/22 07:52:10;;;;;;;;;;;16.20;99.90;;;;;;4933614;28;19906;-77
2023/09/22 07:54:36;;;;;;;;;;;16.20;99.90;;;;;;4951469;29;19958;-78
2023/09/22 07:57:03;;;;;;;;;;;16.20;99.90;;;;;;4977505;28;19918;-78
2023/09/22 07:59:30;;;;;;;;;;;16.30;99.90;;;;;;4982979;28;19906;-79
2023/09/22 08:01:56;;;;;;;;;;;16.30;99.90;;;;;;4970028;28;20091;-79
2023/09/22 08:04:23;;;;;;;;;;;16.30;99.90;;;;;;4956471;28;20158;-79
2023/09/22 08:06:49;;;;;;;;;;;16.30;99.90;;;;;;4963894;28;19978;-79
2023/09/22 08:09:15;;;;;;;;;;;16.40;99.90;;;;;;4954844;28;20188;-79
2023/09/22 08:11:41;;;;;;;;;;;16.40;99.90;;;;;;4964267;28;19909;-79
2023/09/22 08:14:07;;;;;;;;;;;16.30;99.90;;;;;;4955713;28;20107;-79
2023/09/22 08:16:34;;;;;;;;;;;16.30;99.90;;;;;;4932669;28;19914;-79
2023/09/22 08:19:00;;;;;;;;;;;16.40;99.90;;;;;;4952578;28;20195;-79
2023/09/22 08:21:26;;;;;;;;;;;16.50;99.90;;;;;;4975660;28;20267;-79
2023/09/22 08:23:51;;;;;;;;;;;16.70;99.90;;;;;;4974405;28;19907;-79
2023/09/22 08:26:17;;;;;;;;;;;17.00;99.90;;;;;;4931634;28;20088;-78
2023/09/22 08:28:50;;;;;;;;;;;17.40;99.90;;;;;;4958367;29;19906;-80
2023/09/22 08:31:18;;;;;;;;;;;17.80;99.90;;;;;;4927643;28;19937;-78
2023/09/22 08:33:44;;;;;;;;;;;18.10;99.90;;;;;;4963925;28;19915;-79
2023/09/22 08:36:14;;;;;;;;;;;18.30;99.90;;;;;;4946353;28;19973;-79
2023/09/22 08:38:47;;;;;;;;;;;18.40;99.90;;;;;;4986231;28;19902;-79
2023/09/22 08:41:16;;;;;;;;;;;18.50;99.90;;;;;;4950224;28;19906;-79
2023/09/22 08:43:41;;;;;;;;;;;18.50;99.90;;;;;;4950161;28;20111;-79
2023/09/22 08:46:07;;;;;;;;;;;18.40;99.90;;;;;;4948911;28;19910;-78
2023/09/22 08:48:35;;;;;;;;;;;18.40;99.90;;;;;;4974680;28;19906;-78
2023/09/22 08:51:02;;;;;;;;;;;18.40;99.90;;;;;;4959594;28;20005;-77
2023/09/22 08:53:29;;;;;;;;;;;18.40;99.90;;;;;;4981606;28;19902;-78
2023/09/22 08:55:55;;;;;;;;;;;18.50;99.90;;;;;;4985137;28;19982;-78
2023/09/22 08:58:21;;;;;;;;;;;18.60;99.90;;;;;;4983156;28;19932;-78
2023/09/22 09:00:53;;;;;;;;;;;18.80;99.90;;;;;;4970713;28;19914;-78
2023/09/22 09:03:25;;;;;;;;;;;18.90;99.90;;;;;;4966110;28;20281;-78
2023/09/22 09:06:03;;;;;;;;;;;19.00;99.90;;;;;;4970036;28;19930;-78
2023/09/22 09:08:29;;;;;;;;;;;19.10;99.90;;;;;;4975112;28;19954;-79
2023/09/22 09:11:05;;;;;;;;;;;19.10;99.90;;;;;;4962166;29;19973;-80
2023/09/22 09:13:33;;;;;;;;;;;19.00;99.90;;;;;;4951624;28;19907;-79
2023/09/22 09:16:06;;;;;;;;;;;18.90;99.90;;;;;;4969481;28;20227;-77
2023/09/22 09:18:32;;;;;;;;;;;18.90;99.90;;;;;;4975427;28;20112;-77
2023/09/22 09:21:16;;;;;;;;;;;18.70;99.90;;;;;;4965544;28;19914;-78
2023/09/22 09:23:53;;;;;;;;;;;18.40;99.90;;;;;;4975564;28;19916;-79
2023/09/22 09:26:31;;;;;;;;;;;18.20;99.90;;;;;;4972694;28;19940;-79
2023/09/22 09:29:03;;;;;;;;;;;18.20;99.90;;;;;;4963623;28;19922;-79
2023/09/22 09:31:46;;;;;;;;;;;18.20;99.90;;;;;;4955342;28;19953;-78
2023/09/22 09:34:14;;;;;;;;;;;18.20;99.90;;;;;;4961914;28;19962;-79
2023/09/22 09:36:40;;;;;;;;;;;18.10;99.90;;;;;;4979839;28;19934;-77
2023/09/22 09:39:06;;;;;;;;;;;18.20;99.90;;;;;;4965188;28;19941;-78
2023/09/22 09:41:32;;;;;;;;;;;18.20;99.90;;;;;;4969921;28;19933;-78
2023/09/22 09:44:03;;;;;;;;;;;18.10;99.90;;;;;;4961495;28;20203;-78
2023/09/22 09:46:29;;;;;;;;;;;17.90;99.90;;;;;;4952063;29;19977;-77
2023/09/22 09:48:59;;;;;;;;;;;18.00;99.90;;;;;;4941854;28;19913;-78
2023/09/22 09:51:31;;;;;;;;;;;18.40;99.90;;;;;;4978358;28;19906;-78
2023/09/22 09:54:02;;;;;;;;;;;18.90;99.90;;;;;;4936722;28;19910;-77
2023/09/22 09:56:28;;;;;;;;;;;19.10;99.90;;;;;;4948396;28;20255;-78
2023/09/22 09:58:53;;;;;;;;;;;19.40;99.80;;;;;;4970142;28;19906;-78
2023/09/22 10:01:19;;;;;;;;;;;19.20;99.40;;;;;;4960201;28;19906;-78
2023/09/22 10:03:45;;;;;;;;;;;19.20;99.10;;;;;;4950456;28;19913;-79
2023/09/22 10:06:16;;;;;;;;;;;18.90;99.10;;;;;;4974710;28;19910;-79
2023/09/22 10:08:42;;;;;;;;;;;18.70;99.30;;;;;;4976812;28;19965;-79
2023/09/22 10:11:08;;;;;;;;;;;18.60;99.80;;;;;;4948353;28;19907;-78
2023/09/22 10:13:34;;;;;;;;;;;18.90;99.90;;;;;;4952685;28;19910;-79
2023/09/22 10:16:01;;;;;;;;;;;19.20;99.60;;;;;;4951914;28;19985;-79
2023/09/22 10:18:45;;;;;;;;;;;19.30;98.60;;;;;;4967279;28;19906;-79
2023/09/22 10:22:13;;;;;;;2.03;0.40;;;19.10;98.50;;;;;;5182279;27;20102;-75
2023/09/22 10:24:40;;;;;;;2.22;0.30;;;19.30;98.30;;;;;;5181248;27;20101;-75
2023/09/22 10:27:08;;;;;;;1.58;0.40;;;19.50;97.70;;;;;;5181657;27;20018;-76
2023/09/22 10:29:34;;;;;;;3.20;0.50;;;19.10;97.70;;;;;;5182064;27;20030;-75
2023/09/22 10:32:15;;;;;;;2.75;0.50;;;19.20;98.30;;;;;;5181178;27;20019;-75
2023/09/22 10:34:55;;;;;;;2.25;0.50;;;19.60;97.60;;;;;;5181241;27;20022;-75
2023/09/22 10:37:28;;;;;;;2.95;0.35;;;20.00;97.20;;;;;;5178984;27;20207;-75
2023/09/22 10:40:19;;;;;;;1.35;0.43;;;20.10;96.40;;;;;;5180896;27;20435;-76
2023/09/22 10:42:50;;;;;;;2.00;0.30;;;20.30;95.40;;;;;;5181083;27;20243;-77
2023/09/22 10:45:21;;;;;;;0.98;0.30;;;20.60;95.20;;;;;;5172642;27;20124;-76
2023/09/22 10:47:55;;;;;;;1.60;0.22;;;20.60;94.10;;;;;;5181153;27;20041;-75
2023/09/22 10:50:31;;;;;;;0.68;0.20;;;20.70;93.80;;;;;;5181594;27;20070;-76
2023/09/22 10:53:06;;;;;;;1.65;0.20;;;20.50;92.30;;;;;;5180578;27;20040;-76
2023/09/22 10:55:36;;;;;;;1.80;0.20;;;20.30;92.90;;;;;;5175329;27;20297;-76
2023/09/22 10:58:04;;;;;;;2.03;0.82;;;20.60;92.00;;;;;;5180730;27;20027;-77
2023/09/22 11:00:42;;;;;;;0.40;0.20;;;20.80;91.50;;;;;;5180385;27;20022;-75
2023/09/22 11:03:14;;;;;;;2.17;0.25;;;20.60;91.60;;;;;;5178421;27;20030;-76
2023/09/22 11:05:44;;;;;;;1.13;0.20;;;20.60;91.80;;;;;;5182251;27;20037;-74
2023/09/22 11:08:14;;;;;;;0.75;0.20;;;20.40;91.10;;;;;;5165578;27;20242;-75
2023/09/22 11:10:44;;;;;;;0.73;0.20;;;20.60;91.20;;;;;;5179267;27;20116;-75
2023/09/22 11:13:10;;;;;;;1.95;0.45;;;20.40;91.40;;;;;;5183152;27;20026;-74
2023/09/22 11:15:56;;;;;;;1.05;0.32;;;20.80;90.40;;;;;;5182261;27;20030;-75
2023/09/22 11:18:29;;;;;;;1.85;0.40;;;21.10;90.30;;;;;;5180909;27;20119;-76
2023/09/22 11:21:05;;;;;;;0.60;0.20;;;21.30;89.70;;;;;;5180144;27;20162;-74
2023/09/22 11:23:32;;;;;;;0.75;0.28;;;21.00;89.10;;;;;;5180324;27;20102;-75
2023/09/22 11:26:09;;;;;;;0.73;0.20;;;20.90;90.30;;;;;;5179958;27;20177;-75
2023/09/22 11:28:45;;;;;;;1.23;0.20;;;20.90;90.50;;;;;;5180551;27;20264;-76
2023/09/22 11:31:18;;;;;;;1.60;0.47;;;20.80;90.40;;;;;;5180544;27;20081;-75
2023/09/22 11:33:45;;;;;;;0.75;0.17;;;20.80;90.30;;;;;;5166109;27;20038;-76
2023/09/22 11:36:12;;;;;;;1.98;0.30;;;20.90;88.10;;;;;;5166507;27;20026;-74
2023/09/22 11:38:45;;;;;;;0.73;0.20;;;20.90;88.00;;;;;;5166913;27;20023;-74
2023/09/22 11:41:16;;;;;;;2.42;0.50;;;20.90;87.30;;;;;;5166584;27;20090;-75
2023/09/22 11:43:54;;;;;;;1.17;0.28;;;20.90;88.30;;;;;;5165680;27;20034;-75
2023/09/22 11:46:22;;;;;;;;;;;21.10;87.20;;;;;;5166484;27;20034;-75
2023/09/22 11:48:51;;;;;;;;;;;22.10;85.70;;;;;;5166746;27;19963;-77
2023/09/22 11:51:17;;;;;;;;;;;23.60;81.90;;;;;;5166503;27;20173;-77
2023/09/22 11:53:43;;;;;;;;;;;24.60;76.80;;;;;;5166563;27;19910;-77
2023/09/22 11:56:09;;;;;;;;;;;24.70;76.20;;;;;;5155312;27;19903;-78
2023/09/22 11:58:34;;;;;;;;;;;24.00;75.90;;;;;;5166733;27;19899;-75
2023/09/22 12:01:00;;;;;;;;;;;24.40;75.10;;;;;;5165351;27;20062;-76
2023/09/22 12:03:26;;;;;;;;;;;25.20;74.60;;;;;;5165871;27;19907;-76
2023/09/22 12:05:52;;;;;;;;;;;26.60;71.40;;;;;;5150887;27;19907;-77
2023/09/22 12:08:17;;;;;;;;;;;27.60;66.50;;;;;;5166080;27;19903;-76
2023/09/22 12:10:43;;;;;;;;;;;28.30;64.00;;;;;;5165908;27;19915;-76
2023/09/22 12:13:09;;;;;;;;;;;28.20;63.70;;;;;;5166391;27;19903;-76
2023/09/22 12:15:35;;;;;;;;;;;28.80;62.30;;;;;;5129170;27;20085;-76
2023/09/22 12:18:02;;;;;;;;;;;28.40;60.70;;;;;;5166084;27;20223;-76
2023/09/22 12:20:28;;;;;;;;;;;27.30;62.90;;;;;;5166305;27;19914;-75
2023/09/22 12:22:53;;;;;;;;;;;27.70;62.00;;;;;;5146674;27;19928;-76
2023/09/22 12:25:19;;;;;;;;;;;26.20;64.30;;;;;;5165433;27;19910;-76
2023/09/22 12:27:44;;;;;;;;;;;25.50;67.60;;;;;;5165508;27;19899;-77
2023/09/22 12:30:10;;;;;;;;;;;24.20;69.70;;;;;;5165689;27;19969;-77
2023/09/22 12:32:36;;;;;;;;;;;23.50;71.90;;;;;;5166331;27;19907;-76
2023/09/22 12:35:01;;;;;;;;;;;23.30;73.40;;;;;;5165268;27;19914;-76
2023/09/22 12:37:27;;;;;;;;;;;22.50;74.50;;;;;;5165839;27;19948;-77
2023/09/22 12:39:53;;;;;;;;;;;22.10;75.80;;;;;;5165259;27;19906;-75
2023/09/22 12:42:18;;;;;;;;;;;22.30;74.70;;;;;;5165852;27;19934;-76
2023/09/22 12:44:45;;;;;;;;;;;22.70;74.20;;;;;;5161695;27;19946;-76
2023/09/22 12:47:11;;;;;;;;;;;24.40;72.70;;;;;;5164388;27;19970;-77
2023/09/22 12:49:38;;;;;;;;;;;25.70;69.40;;;;;;5165969;27;19899;-76
2023/09/22 12:52:03;;;;;;;;;;;27.30;65.90;;;;;;5164907;27;19942;-77
2023/09/22 12:54:29;;;;;;;;;;;28.10;64.00;;;;;;5163615;27;19940;-78
2023/09/22 12:56:54;;;;;;;;;;;27.70;63.60;;;;;;5132878;27;19899;-79
2023/09/22 12:59:20;;;;;;;;;;;29.00;61.60;;;;;;5157285;27;19903;-77
2023/09/22 13:01:46;;;;;;;;;;;29.90;60.60;;;;;;5159450;27;19926;-79
2023/09/22 13:04:12;;;;;;;;;;;28.90;60.80;;;;;;5162505;27;19974;-75
2023/09/22 13:06:40;;;;;;;;;;;28.40;61.10;;;;;;5163759;27;19903;-75
2023/09/22 13:09:06;;;;;;;;;;;28.10;61.90;;;;;;5165479;27;19903;-77
2023/09/22 13:11:32;;;;;;;;;;;29.00;61.50;;;;;;5146836;27;19918;-77
2023/09/22 13:13:58;;;;;;;;;;;28.40;60.70;;;;;;5164695;27;19949;-79
2023/09/22 13:16:23;;;;;;;;;;;27.40;63.70;;;;;;5162242;27;19903;-78
2023/09/22 13:18:52;;;;;;;;;;;26.20;63.40;;;;;;5147054;27;19899;-78
2023/09/22 13:21:17;;;;;;;;;;;25.10;66.70;;;;;;5165018;27;19913;-79
2023/09/22 13:23:43;;;;;;;;;;;24.50;68.30;;;;;;5164441;27;19903;-78
2023/09/22 13:26:09;;;;;;;;;;;24.90;68.10;;;;;;5164708;27;19899;-78
2023/09/22 13:28:35;;;;;;;;;;;25.30;67.60;;;;;;5165086;27;20096;-79
2023/09/22 13:31:07;;;;;;;;;;;27.60;62.90;;;;;;5164604;27;19939;-80
2023/09/22 13:33:33;;;;;;;;;;;29.90;59.00;;;;;;5165037;27;19910;-78
2023/09/22 13:35:58;;;;;;;;;;;30.90;57.70;;;;;;5165114;27;19965;-77
2023/09/22 13:38:24;;;;;;;;;;;30.90;57.00;;;;;;5164839;27;19903;-79
2023/09/22 13:40:50;;;;;;;;;;;30.90;56.80;;;;;;5155616;27;20173;-77
2023/09/22 13:43:15;;;;;;;;;;;30.40;55.50;;;;;;5164425;27;19903;-78
2023/09/22 13:45:41;;;;;;;;;;;30.00;57.10;;;;;;5153322;27;19958;-80
2023/09/22 13:48:10;;;;;;;;;;;31.00;57.30;;;;;;5163491;27;19903;-79
2023/09/22 13:50:38;;;;;;;;;;;32.60;54.60;;;;;;5161087;27;19963;-78
2023/09/22 13:53:05;;;;;;;;;;;33.50;52.40;;;;;;5164183;27;20105;-78
2023/09/22 13:55:35;;;;;;;;;;;33.50;53.10;;;;;;5164576;27;20173;-78
2023/09/22 13:58:03;;;;;;;;;;;32.70;53.70;;;;;;5163847;27;19949;-79
2023/09/22 14:00:29;;;;;;;;;;;32.50;54.00;;;;;;5163276;27;19903;-79
2023/09/22 14:02:56;;;;;;;;;;;32.90;53.20;;;;;;5163840;27;19922;-78
2023/09/22 14:05:23;;;;;;;;;;;32.20;53.60;;;;;;5164497;27;19942;-77
2023/09/22 14:07:48;;;;;;;;;;;31.20;53.70;;;;;;5162562;27;19899;-78
2023/09/22 14:10:14;;;;;;;;;;;31.70;53.90;;;;;;5164613;27;19903;-78
2023/09/22 14:12:40;;;;;;;;;;;32.80;53.50;;;;;;5136333;27;19907;-77
2023/09/22 14:15:08;;;;;;;;;;;32.90;53.80;;;;;;5151508;27;19910;-79
2023/09/22 14:17:39;;;;;;;;;;;32.60;53.10;;;;;;5162671;27;20100;-78
2023/09/22 14:20:05;;;;;;;;;;;33.20;51.20;;;;;;5149989;27;20297;-76
2023/09/22 14:22:31;;;;;;;;;;;32.90;51.30;;;;;;5164037;27;19906;-79
2023/09/22 14:24:57;;;;;;;;;;;31.30;52.90;;;;;;5148570;27;19903;-78
2023/09/22 14:27:25;;;;;;;;;;;31.10;53.40;;;;;;5163793;27;19907;-78
2023/09/22 14:29:50;;;;;;;;;;;30.90;52.40;;;;;;5153854;27;19938;-80
2023/09/22 14:32:16;;;;;;;;;;;32.70;52.60;;;;;;5164302;27;19899;-80
2023/09/22 14:34:50;;;;;;;;;;;32.90;51.50;;;;;;5164162;27;19971;-79
2023/09/22 14:37:16;;;;;;;;;;;32.10;51.10;;;;;;5164348;27;19907;-79
2023/09/22 14:39:42;;;;;;;;;;;32.40;51.80;;;;;;5163813;27;20257;-80
2023/09/22 14:42:07;;;;;;;;;;;32.90;50.80;;;;;;5164368;27;19910;-79
2023/09/22 14:44:33;;;;;;;;;;;31.50;51.40;;;;;;5155045;27;19910;-79
2023/09/22 14:46:58;;;;;;;;;;;32.30;51.10;;;;;;5163788;27;19926;-78
2023/09/22 14:49:24;;;;;;;;;;;30.90;52.10;;;;;;5162414;27;19910;-78
2023/09/22 14:51:50;;;;;;;;;;;29.80;51.80;;;;;;5158577;27;19914;-76
2023/09/22 14:54:15;;;;;;;;;;;30.20;52.10;;;;;;5162842;27;20138;-79
2023/09/22 14:56:42;;;;;;;;;;;31.10;51.80;;;;;;5163837;27;19903;-79
2023/09/22 14:59:08;;;;;;;;;;;31.30;51.00;;;;;;5164397;27;19945;-79
2023/09/22 15:01:33;;;;;;;;;;;31.50;50.00;;;;;;5161242;27;19910;-79
2023/09/22 15:03:59;;;;;;;;;;;32.00;48.70;;;;;;5164223;27;19918;-79
2023/09/22 15:06:25;;;;;;;;;;;33.00;47.60;;;;;;5164066;27;19903;-78
2023/09/22 15:08:51;;;;;;;;;;;31.30;48.40;;;;;;5170810;27;19960;-80
2023/09/22 15:11:16;;;;;;;;;;;29.90;50.00;;;;;;5181577;27;19902;-78
2023/09/22 15:13:42;;;;;;;;;;;29.10;50.80;;;;;;5168777;27;19910;-78
2023/09/22 15:16:08;;;;;;;;;;;28.70;51.80;;;;;;5162623;27;19935;-75
2023/09/22 15:18:34;;;;;;;;;;;28.40;52.50;;;;;;5168079;27;19910;-79
2023/09/22 15:21:00;;;;;;;;;;;29.00;51.90;;;;;;5166754;27;19911;-78
2023/09/22 15:23:26;;;;;;;;;;;30.10;51.40;;;;;;5167760;27;19903;-77
2023/09/22 15:25:52;;;;;;;;;;;28.50;52.00;;;;;;5163951;27;20208;-78
2023/09/22 15:28:18;;;;;;;;;;;26.80;55.80;;;;;;5166804;27;19914;-77
2023/09/22 15:30:44;;;;;;;;;;;25.70;58.20;;;;;;5166652;27;20189;-78
2023/09/22 15:33:10;;;;;;;;;;;24.90;65.30;;;;;;5167343;27;19915;-77
2023/09/22 15:35:38;;;;;;;;;;;24.20;69.50;;;;;;5161916;27;20204;-77
2023/09/22 15:38:04;;;;;;;;;;;23.60;71.60;;;;;;5166775;27;20173;-78
2023/09/22 15:40:30;;;;;;;;;;;23.20;73.50;;;;;;5148618;27;19903;-78
2023/09/22 15:42:55;;;;;;;;;;;23.10;74.10;;;;;;5166660;27;19949;-79
2023/09/22 15:45:21;;;;;;;;;;;23.60;73.40;;;;;;5160374;27;19962;-77
2023/09/22 15:47:47;;;;;;;;;;;25.30;69.50;;;;;;5166497;27;19903;-79
2023/09/22 15:50:13;;;;;;;;;;;26.40;66.60;;;;;;5167037;27;19914;-78
2023/09/22 15:52:39;;;;;;;;;;;27.80;63.60;;;;;;5167008;27;19910;-77
2023/09/22 15:55:09;;;;;;;;;;;28.00;62.50;;;;;;5147660;27;19903;-84
2023/09/22 15:57:36;;;;;;;;;;;27.60;63.00;;;;;;5160154;27;19903;-76
2023/09/22 16:00:05;;;;;;;;;;;28.20;62.50;;;;;;5164451;27;19937;-76
2023/09/22 16:02:31;;;;;;;;;;;28.60;61.20;;;;;;5164447;27;19911;-77
2023/09/22 16:04:57;;;;;;;;;;;27.40;62.10;;;;;;5165376;27;20116;-75
2023/09/22 16:07:23;;;;;;;;;;;25.90;64.80;;;;;;5161046;27;19906;-75
2023/09/22 16:09:50;;;;;;;;;;;25.80;65.60;;;;;;5165865;27;20195;-75
2023/09/22 16:12:22;;;;;;;;;;;26.20;64.30;;;;;;5166346;27;19907;-79
2023/09/22 16:14:47;;;;;;;;;;;25.70;64.80;;;;;;5164821;27;19902;-75
2023/09/22 16:17:13;;;;;;;;;;;26.00;65.50;;;;;;5166618;27;19939;-77
2023/09/22 16:19:39;;;;;;;;;;;26.40;64.60;;;;;;5165313;27;19903;-76
2023/09/22 16:22:05;;;;;;;;;;;25.40;66.20;;;;;;5165866;27;19910;-77
2023/09/22 16:24:31;;;;;;;;;;;24.50;68.50;;;;;;5157054;27;19911;-76
2023/09/22 16:26:58;;;;;;;;;;;23.80;70.40;;;;;;5151422;27;20136;-76
2023/09/22 16:29:23;;;;;;;;;;;22.60;73.70;;;;;;5166083;27;19899;-78
2023/09/22 16:31:49;;;;;;;;;;;21.80;76.30;;;;;;5128741;27;20067;-76
2023/09/22 16:34:14;;;;;;;;;;;21.20;78.50;;;;;;5166091;27;19944;-75
2023/09/22 16:36:40;;;;;;;;;;;20.50;80.80;;;;;;5166258;27;20204;-75
2023/09/22 16:39:05;;;;;;;;;;;20.30;81.90;;;;;;5163869;27;20158;-75
2023/09/22 16:41:31;;;;;;;;;;;19.90;83.10;;;;;;5165443;27;19966;-75
2023/09/22 16:43:57;;;;;;;;;;;19.70;84.40;;;;;;5165139;27;20061;-75
2023/09/22 16:46:23;;;;;;;;;;;19.50;85.60;;;;;;5165011;27;20208;-76
2023/09/22 16:48:48;;;;;;;;;;;19.30;86.40;;;;;;5165027;27;19903;-77
2023/09/22 16:51:14;;;;;;;;;;;19.20;86.90;;;;;;5165662;27;19947;-76
2023/09/22 16:53:39;;;;;;;;;;;18.90;87.80;;;;;;5156597;27;19907;-77
2023/09/22 16:56:07;;;;;;;;;;;18.80;88.50;;;;;;5164793;27;20174;-76
2023/09/22 16:58:33;;;;;;;;;;;18.60;89.20;;;;;;5165715;27;19899;-78
2023/09/22 17:00:59;;;;;;;;;;;18.50;90.10;;;;;;5162108;27;19944;-78
2023/09/22 17:03:27;;;;;;;;;;;18.30;90.40;;;;;;5165931;27;19903;-78
2023/09/22 17:05:57;;;;;;;;;;;18.10;90.70;;;;;;5164524;27;19951;-76
2023/09/22 17:08:24;;;;;;;;;;;18.00;91.10;;;;;;5146848;27;19903;-77
2023/09/22 17:11:03;;;;;;;;;;;18.00;91.10;;;;;;5164892;27;19914;-80
2023/09/22 17:13:29;;;;;;;;;;;18.00;91.30;;;;;;5155218;27;19903;-78
2023/09/22 17:15:55;;;;;;;;;;;17.90;91.50;;;;;;5149507;27;19909;-79
2023/09/22 17:18:21;;;;;;;;;;;17.80;91.60;;;;;;5151497;27;19938;-78
2023/09/22 17:21:04;;;;;;;;;;;17.60;92.00;;;;;;5164545;27;19918;-79
2023/09/22 17:23:34;;;;;;;;;;;17.60;92.00;;;;;;5148401;27;19903;-78
2023/09/22 17:25:59;;;;;;;;;;;17.60;92.00;;;;;;5164386;27;19975;-79
2023/09/22 17:28:28;;;;;;;;;;;17.60;92.20;;;;;;5158843;27;19903;-79
2023/09/22 17:31:01;;;;;;;;;;;17.60;92.10;;;;;;5149594;27;19917;-79
2023/09/22 17:33:27;;;;;;;;;;;17.50;92.20;;;;;;5164962;27;19975;-76
2023/09/22 17:35:52;;;;;;;;;;;17.50;92.10;;;;;;5165064;27;19903;-80
2023/09/22 17:38:18;;;;;;;;;;;17.50;92.10;;;;;;5137999;27;20092;-80
2023/09/22 17:41:03;;;;;;;;;;;17.50;92.20;;;;;;5151183;27;19903;-78
2023/09/22 17:43:35;;;;;;;;;;;17.50;92.20;;;;;;5133493;27;19915;-77
2023/09/22 17:46:02;;;;;;;;;;;17.40;91.80;;;;;;5163561;27;20327;-78
2023/09/22 17:48:38;;;;;;;;;;;17.60;91.80;;;;;;5134607;27;19938;-77
2023/09/22 17:51:04;;;;;;;;;;;17.60;91.70;;;;;;5154458;27;19919;-77
2023/09/22 17:53:30;;;;;;;;;;;17.60;91.60;;;;;;5161467;27;20074;-78
2023/09/22 17:55:56;;;;;;;;;;;17.60;92.10;;;;;;5164454;27;19899;-78
2023/09/22 17:58:21;;;;;;;;;;;17.70;93.30;;;;;;5140270;27;19910;-79
2023/09/22 18:00:48;;;;;;;;;;;16.60;99.90;;;;;;5164412;27;19913;-78
2023/09/22 18:03:14;;;;;;;;;;;15.00;99.90;;;;;;5164009;27;19899;-78
2023/09/22 18:05:39;;;;;;;;;;;14.00;99.90;;;;;;5153293;27;19948;-78
2023/09/22 18:08:05;;;;;;;;;;;13.60;99.90;;;;;;5162961;27;19903;-77
2023/09/22 18:10:30;;;;;;;;;;;13.50;99.90;;;;;;5164090;27;19907;-76
2023/09/22 18:12:56;;;;;;;;;;;13.40;99.90;;;;;;5159588;27;20119;-76
2023/09/22 18:15:51;;;;;;;;;;;13.30;99.90;;;;;;5149959;27;19903;-77
2023/09/22 18:18:19;;;;;;;;;;;13.30;99.90;;;;;;5147741;27;19903;-76
2023/09/22 18:20:49;;;;;;;;;;;13.30;99.90;;;;;;5163075;27;19975;-79
2023/09/22 18:23:15;;;;;;;;;;;13.30;99.90;;;;;;5164473;27;19903;-78
2023/09/22 18:25:50;;;;;;;;;;;13.10;99.90;;;;;;5125506;27;19939;-78
2023/09/22 18:28:15;;;;;;;;;;;13.10;99.90;;;;;;5152699;27;19910;-76
2023/09/22 18:30:41;;;;;;;;;;;13.00;99.90;;;;;;5110010;27;19967;-80
2023/09/22 18:33:11;;;;;;;;;;;13.00;99.90;;;;;;5118847;28;20078;-78
2023/09/22 18:35:37;;;;;;;;;;;13.10;99.90;;;;;;5136302;27;19969;-80